createdAt,value
2019-05-01T00:02:37.103Z,97193.34
2019-05-01T00:05:11.462Z,97187.59
2019-05-01T00:07:41.918Z,97186.37
2019-05-01T00:10:11.730Z,97189.00
2019-05-01T00:12:41.551Z,97189.50
2019-05-01T00:15:12.641Z,97192.74
2019-05-01T00:17:42.165Z,97195.34
2019-05-01T00:20:12.131Z,97197.14
2019-05-01T00:22:41.506Z,97198.30
2019-05-01T00:25:11.134Z,97194.49
2019-05-01T00:27:40.680Z,97196.63
2019-05-01T00:30:11.993Z,97204.30
2019-05-01T00:32:41.445Z,97194.84
2019-05-01T00:35:10.916Z,97194.77
2019-05-01T00:37:40.362Z,97189.15
2019-05-01T00:40:10.082Z,97202.35
2019-05-01T00:42:39.462Z,97191.80
2019-05-01T00:45:08.978Z,97193.31
2019-05-01T00:47:38.360Z,97182.39
2019-05-01T00:50:08.822Z,97179.70
2019-05-01T00:52:38.227Z,97178.90
2019-05-01T00:55:25.742Z,97184.92
2019-05-01T00:57:59.765Z,97193.23
2019-05-01T01:00:42.576Z,97191.36
2019-05-01T01:03:01.892Z,97192.05
2019-05-01T01:05:31.282Z,97189.48
2019-05-01T01:08:00.832Z,97188.52
2019-05-01T01:10:30.221Z,97191.73
2019-05-01T01:12:59.593Z,97196.72
2019-05-01T01:15:28.989Z,97193.09
2019-05-01T01:17:58.369Z,97193.69
2019-05-01T01:20:27.752Z,97196.98
2019-05-01T01:22:58.478Z,97194.10
2019-05-01T01:25:27.846Z,97194.77
2019-05-01T01:27:57.394Z,97190.81
2019-05-01T01:30:26.820Z,97192.20
2019-05-01T01:32:57.355Z,97188.67
2019-05-01T01:35:26.796Z,97190.70
2019-05-01T01:37:56.321Z,97195.55
2019-05-01T01:40:25.851Z,97198.17
2019-05-01T01:42:57.200Z,97205.70
2019-05-01T01:45:29.965Z,97201.91
2019-05-01T01:48:09.710Z,97212.71
2019-05-01T01:50:42.037Z,97211.90
2019-05-01T01:53:14.386Z,97216.58
2019-05-01T01:55:44.404Z,97217.21
2019-05-01T01:58:15.049Z,97210.91
2019-05-01T02:01:09.232Z,97204.97
2019-05-01T02:03:41.400Z,97209.57
2019-05-01T02:06:11.527Z,97199.02
2019-05-01T02:08:41.036Z,97200.19
2019-05-01T02:11:10.966Z,97202.69
2019-05-01T02:13:40.681Z,97198.02
2019-05-01T02:16:10.142Z,97211.61
2019-05-01T02:18:39.589Z,97206.75
2019-05-01T02:21:09.051Z,97206.96
2019-05-01T02:23:38.424Z,97201.97
2019-05-01T02:26:09.923Z,97197.45
2019-05-01T02:28:46.800Z,97201.20
2019-05-01T02:31:27.143Z,97183.63
2019-05-01T02:33:49.479Z,97196.54
2019-05-01T02:36:21.380Z,97198.00
2019-05-01T02:38:52.345Z,97196.73
2019-05-01T02:41:24.112Z,97190.70
2019-05-01T02:43:56.835Z,97197.95
2019-05-01T02:46:28.927Z,97200.29
2019-05-01T02:49:13.517Z,97191.27
2019-05-01T02:51:45.598Z,97200.14
2019-05-01T02:54:18.196Z,97198.45
2019-05-01T02:56:50.874Z,97192.52
2019-05-01T02:59:23.907Z,97194.22
2019-05-01T03:01:55.201Z,97195.83
2019-05-01T03:04:24.823Z,97190.42
2019-05-01T03:06:54.442Z,97194.48
2019-05-01T03:09:24.373Z,97188.85
2019-05-01T03:11:56.624Z,97196.19
2019-05-01T03:14:29.111Z,97202.20
2019-05-01T03:17:02.963Z,97194.93
2019-05-01T03:19:36.323Z,97202.45
2019-05-01T03:22:07.976Z,97209.77
2019-05-01T03:24:37.440Z,97210.24
2019-05-01T03:27:07.064Z,97214.56
2019-05-01T03:29:36.980Z,97208.62
2019-05-01T03:32:17.816Z,97210.39
2019-05-01T03:34:37.906Z,97209.12
2019-05-01T03:37:07.393Z,97204.86
2019-05-01T03:39:37.203Z,97207.45
2019-05-01T03:42:06.751Z,97205.47
2019-05-01T03:44:36.209Z,97202.72
2019-05-01T03:47:05.582Z,97199.76
2019-05-01T03:49:35.102Z,97206.36
2019-05-01T03:52:04.644Z,97204.08
2019-05-01T03:54:34.421Z,97200.12
2019-05-01T03:57:04.442Z,97201.04
2019-05-01T03:59:34.517Z,97207.56
2019-05-01T04:02:32.841Z,97198.72
2019-05-01T04:04:53.897Z,97205.18
2019-05-01T04:07:23.904Z,97208.87
2019-05-01T04:09:53.674Z,97206.03
2019-05-01T04:12:23.701Z,97209.08
2019-05-01T04:14:53.355Z,97207.88
2019-05-01T04:17:27.051Z,97201.25
2019-05-01T04:19:56.492Z,97207.19
2019-05-01T04:22:26.023Z,97194.97
2019-05-01T04:24:55.945Z,97206.94
2019-05-01T04:27:27.406Z,97213.78
2019-05-01T04:30:04.729Z,97217.58
2019-05-01T04:32:50.800Z,97202.22
2019-05-01T04:35:26.604Z,97213.78
2019-05-01T04:37:57.236Z,97210.80
2019-05-01T04:40:26.948Z,97224.01
2019-05-01T04:42:56.883Z,97227.48
2019-05-01T04:45:26.783Z,97217.30
2019-05-01T04:47:56.721Z,97223.42
2019-05-01T04:50:26.368Z,97226.81
2019-05-01T04:52:55.923Z,97228.73
2019-05-01T04:55:25.602Z,97224.13
2019-05-01T04:57:55.671Z,97218.00
2019-05-01T05:00:25.316Z,97225.17
2019-05-01T05:03:04.489Z,97229.99
2019-05-01T05:05:28.767Z,97230.73
2019-05-01T05:07:58.587Z,97232.75
2019-05-01T05:10:28.526Z,97235.08
2019-05-01T05:12:59.789Z,97231.75
2019-05-01T05:15:40.890Z,97237.50
2019-05-01T05:18:10.412Z,97228.66
2019-05-01T05:20:40.306Z,97235.53
2019-05-01T05:23:09.824Z,97222.89
2019-05-01T05:25:39.544Z,97227.96
2019-05-01T05:28:10.175Z,97222.61
2019-05-01T05:30:41.746Z,97219.84
2019-05-01T05:33:18.618Z,97220.16
2019-05-01T05:35:44.714Z,97224.17
2019-05-01T05:38:18.256Z,97220.10
2019-05-01T05:40:48.670Z,97221.23
2019-05-01T05:43:18.407Z,97218.47
2019-05-01T05:45:48.431Z,97211.31
2019-05-01T05:48:17.998Z,97208.69
2019-05-01T05:50:51.752Z,97213.64
2019-05-01T05:53:26.829Z,97208.23
2019-05-01T05:56:06.942Z,97202.25
2019-05-01T05:58:43.853Z,97202.66
2019-05-01T06:01:23.026Z,97201.38
2019-05-01T06:03:56.693Z,97205.13
2019-05-01T06:06:50.722Z,97207.14
2019-05-01T06:09:24.780Z,97206.61
2019-05-01T06:11:56.956Z,97205.09
2019-05-01T06:14:45.866Z,97200.37
2019-05-01T06:17:34.126Z,97203.70
2019-05-01T06:20:12.933Z,97201.16
2019-05-01T06:23:01.766Z,97196.97
2019-05-01T06:25:33.230Z,97202.61
2019-05-01T06:28:02.939Z,97206.08
2019-05-01T06:30:32.453Z,97198.45
2019-05-01T06:33:04.337Z,97200.66
2019-05-01T06:35:33.997Z,97206.97
2019-05-01T06:38:17.210Z,97209.53
2019-05-01T06:40:53.015Z,97193.12
2019-05-01T06:43:43.586Z,97195.18
2019-05-01T06:46:14.354Z,97193.30
2019-05-01T06:49:07.059Z,97194.48
2019-05-01T06:51:55.163Z,97198.55
2019-05-01T06:54:27.641Z,97206.80
2019-05-01T06:56:57.682Z,97201.88
2019-05-01T06:59:31.642Z,97188.85
2019-05-01T07:02:01.311Z,97191.31
2019-05-01T07:04:32.345Z,97199.66
2019-05-01T07:07:06.770Z,97200.16
2019-05-01T07:09:37.108Z,97197.23
2019-05-01T07:12:08.576Z,97191.27
2019-05-01T07:14:38.416Z,97193.23
2019-05-01T07:17:08.912Z,97194.66
2019-05-01T07:19:57.192Z,97200.13
2019-05-01T07:22:26.825Z,97189.17
2019-05-01T07:24:59.045Z,97196.73
2019-05-01T07:27:27.494Z,97200.28
2019-05-01T07:30:08.092Z,97194.75
2019-05-01T07:32:41.215Z,97183.64
2019-05-01T07:35:09.439Z,97191.92
2019-05-01T07:37:40.235Z,97191.11
2019-05-01T07:40:10.813Z,97196.50
2019-05-01T07:42:43.701Z,97190.25
2019-05-01T07:45:14.772Z,97183.48
2019-05-01T07:47:46.034Z,97190.67
2019-05-01T07:50:17.565Z,97188.06
2019-05-01T07:52:52.080Z,97194.09
2019-05-01T07:55:37.256Z,97195.16
2019-05-01T07:58:10.423Z,97194.13
2019-05-01T08:00:49.980Z,97195.16
2019-05-01T08:03:19.493Z,97191.66
2019-05-01T08:05:49.138Z,97190.28
2019-05-01T08:08:18.600Z,97189.90
2019-05-01T08:10:47.994Z,97182.76
2019-05-01T08:13:17.448Z,97190.02
2019-05-01T08:15:46.845Z,97192.15
2019-05-01T08:18:17.919Z,97188.87
2019-05-01T08:20:51.660Z,97188.34
2019-05-01T08:23:21.037Z,97191.24
2019-05-01T08:25:50.453Z,97188.66
2019-05-01T08:28:21.476Z,97187.77
2019-05-01T08:31:07.327Z,97192.62
2019-05-01T08:33:39.320Z,97190.77
2019-05-01T08:36:11.580Z,97188.91
2019-05-01T08:38:41.019Z,97182.28
2019-05-01T08:41:10.966Z,97184.86
2019-05-01T08:43:41.188Z,97185.44
2019-05-01T08:46:16.590Z,97184.61
2019-05-01T08:48:47.756Z,97188.21
2019-05-01T08:51:17.134Z,97186.88
2019-05-01T08:53:46.533Z,97185.20
2019-05-01T08:56:17.011Z,97179.30
2019-05-01T08:58:49.383Z,97177.21
2019-05-01T09:01:18.202Z,97172.99
2019-05-01T09:03:49.754Z,97187.00
2019-05-01T09:06:18.681Z,97180.77
2019-05-01T09:08:48.061Z,97187.80
2019-05-01T09:11:17.486Z,97181.05
2019-05-01T09:13:46.874Z,97186.80
2019-05-01T09:16:19.060Z,97179.70
2019-05-01T09:18:47.585Z,97182.25
2019-05-01T09:21:16.851Z,97188.97
2019-05-01T09:23:51.224Z,97184.22
2019-05-01T09:26:35.338Z,97180.36
2019-05-01T09:29:06.503Z,97179.97
2019-05-01T09:31:36.391Z,97183.14
2019-05-01T09:34:09.212Z,97174.55
2019-05-01T09:36:37.642Z,97177.77
2019-05-01T09:39:09.984Z,97178.33
2019-05-01T09:41:43.045Z,97181.89
2019-05-01T09:44:11.954Z,97176.52
2019-05-01T09:46:41.891Z,97178.12
2019-05-01T09:49:14.207Z,97173.59
2019-05-01T09:51:53.930Z,97176.66
2019-05-01T09:54:36.825Z,97166.48
2019-05-01T09:57:06.282Z,97172.64
2019-05-01T09:59:35.672Z,97173.02
2019-05-01T10:02:07.921Z,97178.45
2019-05-01T10:04:36.525Z,97168.38
2019-05-01T10:07:07.691Z,97164.46
2019-05-01T10:09:37.147Z,97166.31
2019-05-01T10:12:11.603Z,97157.83
2019-05-01T10:14:37.942Z,97163.64
2019-05-01T10:17:07.338Z,97175.50
2019-05-01T10:19:36.811Z,97164.89
2019-05-01T10:22:06.294Z,97167.73
2019-05-01T10:24:37.526Z,97165.87
2019-05-01T10:27:08.407Z,97162.17
2019-05-01T10:29:56.833Z,97158.52
2019-05-01T10:32:28.493Z,97153.95
2019-05-01T10:34:59.595Z,97152.52
2019-05-01T10:37:33.694Z,97147.94
2019-05-01T10:40:00.312Z,97139.73
2019-05-01T10:42:29.717Z,97141.00
2019-05-01T10:44:59.101Z,97148.61
2019-05-01T10:47:28.558Z,97148.61
2019-05-01T10:49:57.946Z,97133.57
2019-05-01T10:52:27.364Z,97140.16
2019-05-01T10:54:56.737Z,97139.32
2019-05-01T10:57:26.194Z,97119.58
2019-05-01T10:59:55.585Z,97119.58
2019-05-01T11:02:25.036Z,97123.23
2019-05-01T11:04:55.391Z,97120.53
2019-05-01T11:07:24.781Z,97109.75
2019-05-01T11:09:54.177Z,97118.46
2019-05-01T11:12:23.560Z,97115.45
2019-05-01T11:14:52.952Z,97119.60
2019-05-01T11:17:22.356Z,97113.48
2019-05-01T11:19:51.750Z,97116.16
2019-05-01T11:22:21.220Z,97119.95
2019-05-01T11:24:50.667Z,97116.09
2019-05-01T11:27:21.189Z,97117.27
2019-05-01T11:29:50.586Z,97127.17
2019-05-01T11:32:30.443Z,97110.00
2019-05-01T11:35:01.470Z,97108.02
2019-05-01T11:37:38.432Z,97111.39
2019-05-01T11:40:13.892Z,97107.81
2019-05-01T11:42:43.291Z,97106.13
2019-05-01T11:45:12.806Z,97097.75
2019-05-01T11:47:42.747Z,97103.52
2019-05-01T11:50:12.780Z,97092.80
2019-05-01T11:52:42.624Z,97097.05
2019-05-01T11:55:12.722Z,97100.44
2019-05-01T11:57:42.131Z,97091.28
2019-05-01T12:00:14.076Z,97087.70
2019-05-01T12:02:43.640Z,97092.72
2019-05-01T12:05:14.090Z,97095.09
2019-05-01T12:07:43.652Z,97081.22
2019-05-01T12:10:15.069Z,97098.48
2019-05-01T12:12:44.462Z,97089.19
2019-05-01T12:15:15.771Z,97071.38
2019-05-01T12:17:46.804Z,97076.25
2019-05-01T12:20:17.023Z,97082.30
2019-05-01T12:22:49.616Z,97068.77
2019-05-01T12:25:17.633Z,97081.87
2019-05-01T12:27:47.019Z,97086.91
2019-05-01T12:30:17.915Z,97092.23
2019-05-01T12:32:47.374Z,97091.38
2019-05-01T12:35:16.891Z,97082.47
2019-05-01T12:37:46.279Z,97080.80
2019-05-01T12:40:16.911Z,97083.11
2019-05-01T12:42:46.357Z,97083.34
2019-05-01T12:45:16.593Z,97080.73
2019-05-01T12:47:47.796Z,97082.09
2019-05-01T12:50:18.835Z,97075.69
2019-05-01T12:52:52.894Z,97085.69
2019-05-01T12:55:30.894Z,97068.81
2019-05-01T12:58:00.285Z,97074.20
2019-05-01T13:00:45.376Z,97066.55
2019-05-01T13:03:14.932Z,97069.48
2019-05-01T13:05:44.308Z,97070.08
2019-05-01T13:08:13.830Z,97052.59
2019-05-01T13:10:43.211Z,97051.66
2019-05-01T13:13:12.994Z,97049.78
2019-05-01T13:15:42.971Z,97047.49
2019-05-01T13:18:12.967Z,97033.04
2019-05-01T13:20:43.042Z,97039.02
2019-05-01T13:23:13.000Z,97037.22
2019-05-01T13:25:43.432Z,97033.61
2019-05-01T13:28:14.678Z,97038.50
2019-05-01T13:30:46.072Z,97029.83
2019-05-01T13:33:15.458Z,97023.28
2019-05-01T13:35:44.851Z,97028.51
2019-05-01T13:38:14.241Z,97020.37
2019-05-01T13:40:43.701Z,97018.83
2019-05-01T13:43:13.119Z,97018.16
2019-05-01T13:45:43.054Z,97012.55
2019-05-01T13:48:13.094Z,97007.83
2019-05-01T13:50:43.163Z,97004.33
2019-05-01T13:53:13.112Z,97012.14
2019-05-01T13:55:42.578Z,97012.13
2019-05-01T13:58:11.953Z,97011.48
2019-05-01T14:00:41.578Z,97007.04
2019-05-01T14:03:10.993Z,97012.45
2019-05-01T14:05:40.464Z,97002.83
2019-05-01T14:08:09.916Z,97009.09
2019-05-01T14:10:39.328Z,97001.70
2019-05-01T14:13:08.718Z,97001.91
2019-05-01T14:15:38.111Z,97002.00
2019-05-01T14:18:07.562Z,96998.48
2019-05-01T14:20:45.107Z,97003.88
2019-05-01T14:23:28.098Z,96996.15
2019-05-01T14:26:05.326Z,96999.13
2019-05-01T14:28:38.283Z,96999.55
2019-05-01T14:31:07.663Z,96996.09
2019-05-01T14:33:37.059Z,97006.02
2019-05-01T14:36:06.514Z,97002.42
2019-05-01T14:38:35.972Z,96998.31
2019-05-01T14:41:06.326Z,97007.81
2019-05-01T14:43:35.792Z,96996.34
2019-05-01T14:46:05.602Z,97009.28
2019-05-01T14:48:35.027Z,97009.81
2019-05-01T14:51:05.034Z,97009.59
2019-05-01T14:53:34.489Z,97010.87
2019-05-01T14:56:04.139Z,97003.58
2019-05-01T14:58:33.520Z,97000.03
2019-05-01T15:01:02.912Z,97008.18
2019-05-01T15:03:32.372Z,97010.23
2019-05-01T15:06:01.758Z,97007.30
2019-05-01T15:08:31.148Z,97000.28
2019-05-01T15:11:00.625Z,96998.86
2019-05-01T15:13:40.443Z,97009.19
2019-05-01T15:16:17.190Z,97007.80
2019-05-01T15:18:53.926Z,97010.19
2019-05-01T15:21:23.324Z,97000.91
2019-05-01T15:23:53.928Z,97005.75
2019-05-01T15:26:23.392Z,97013.69
2019-05-01T15:28:52.769Z,97013.98
2019-05-01T15:31:22.148Z,97006.95
2019-05-01T15:33:51.550Z,97014.97
2019-05-01T15:36:20.929Z,97017.26
2019-05-01T15:38:50.429Z,97014.89
2019-05-01T15:41:37.730Z,97010.26
2019-05-01T15:44:20.583Z,97014.50
2019-05-01T15:46:50.218Z,97020.02
2019-05-01T15:49:20.634Z,97020.02
2019-05-01T15:51:50.079Z,97017.39
2019-05-01T15:54:19.513Z,97021.84
2019-05-01T15:56:48.910Z,97014.66
2019-05-01T15:59:18.287Z,97023.63
2019-05-01T16:01:48.864Z,97024.81
2019-05-01T16:04:18.246Z,97022.95
2019-05-01T16:06:47.777Z,97035.72
2019-05-01T16:09:17.323Z,97029.26
2019-05-01T16:11:57.086Z,97027.72
2019-05-01T16:14:26.464Z,97027.39
2019-05-01T16:16:55.869Z,97026.64
2019-05-01T16:19:25.299Z,97029.52
2019-05-01T16:21:54.864Z,97031.97
2019-05-01T16:24:24.253Z,97032.44
2019-05-01T16:26:53.638Z,97039.56
2019-05-01T16:29:23.026Z,97039.92
2019-05-01T16:31:52.414Z,97039.54
2019-05-01T16:34:21.810Z,97046.60
2019-05-01T16:36:51.194Z,97052.62
2019-05-01T16:39:22.216Z,97049.81
2019-05-01T16:41:51.602Z,97053.14
2019-05-01T16:44:21.282Z,97056.61
2019-05-01T16:46:50.692Z,97058.91
2019-05-01T16:49:20.140Z,97057.05
2019-05-01T16:51:49.538Z,97055.24
2019-05-01T16:54:18.937Z,97062.53
2019-05-01T16:56:48.387Z,97056.66
2019-05-01T16:59:18.752Z,97061.23
2019-05-01T17:01:49.913Z,97062.41
2019-05-01T17:04:24.029Z,97061.23
2019-05-01T17:07:03.903Z,97066.73
2019-05-01T17:09:51.578Z,97065.95
2019-05-01T17:12:22.618Z,97066.91
2019-05-01T17:14:52.072Z,97071.66
2019-05-01T17:17:23.164Z,97072.86
2019-05-01T17:19:52.551Z,97073.50
2019-05-01T17:22:21.939Z,97068.55
2019-05-01T17:24:51.322Z,97069.61
2019-05-01T17:27:20.729Z,97074.65
2019-05-01T17:29:50.188Z,97074.73
2019-05-01T17:32:19.898Z,97075.06
2019-05-01T17:34:49.277Z,97074.52
2019-05-01T17:37:18.671Z,97077.55
2019-05-01T17:39:48.086Z,97078.05
2019-05-01T17:42:17.480Z,97085.98
2019-05-01T17:44:47.363Z,97071.03
2019-05-01T17:47:17.920Z,97071.03
2019-05-01T17:49:48.435Z,97082.87
2019-05-01T17:52:17.837Z,97082.31
2019-05-01T17:54:47.617Z,97082.82
2019-05-01T17:57:17.475Z,97082.37
2019-05-01T17:59:49.210Z,97088.87
2019-05-01T18:02:20.250Z,97088.87
2019-05-01T18:05:03.312Z,97088.56
2019-05-01T18:07:34.721Z,97096.23
2019-05-01T18:10:06.473Z,97098.59
2019-05-01T18:12:36.861Z,97092.81
2019-05-01T18:15:09.646Z,97102.04
2019-05-01T18:17:40.103Z,97093.27
2019-05-01T18:20:09.966Z,97093.27
2019-05-01T18:22:50.301Z,97106.73
2019-05-01T18:25:33.197Z,97103.91
2019-05-01T18:28:12.616Z,97103.36
2019-05-01T18:30:43.712Z,97103.11
2019-05-01T18:33:13.188Z,97111.34
2019-05-01T18:35:44.904Z,97112.63
2019-05-01T18:38:31.430Z,97120.65
2019-05-01T18:41:11.946Z,97115.42
2019-05-01T18:43:41.322Z,97118.66
2019-05-01T18:46:13.127Z,97130.61
2019-05-01T18:48:43.153Z,97129.20
2019-05-01T18:51:12.561Z,97125.22
2019-05-01T18:53:42.642Z,97132.95
2019-05-01T18:56:12.349Z,97130.87
2019-05-01T18:58:42.409Z,97136.88
2019-05-01T19:01:12.764Z,97137.86
2019-05-01T19:03:44.149Z,97145.60
2019-05-01T19:06:13.944Z,97144.45
2019-05-01T19:08:43.411Z,97149.81
2019-05-01T19:11:13.903Z,97151.95
2019-05-01T19:13:43.495Z,97152.13
2019-05-01T19:16:13.575Z,97149.80
2019-05-01T19:18:43.652Z,97136.53
2019-05-01T19:21:15.587Z,97136.53
2019-05-01T19:23:45.000Z,97148.63
2019-05-01T19:26:15.054Z,97149.75
2019-05-01T19:28:44.638Z,97149.75
2019-05-01T19:31:15.098Z,97142.95
2019-05-01T19:33:45.294Z,97149.00
2019-05-01T19:36:15.472Z,97156.95
2019-05-01T19:38:45.666Z,97152.86
2019-05-01T19:41:16.037Z,97150.89
2019-05-01T19:43:46.373Z,97159.75
2019-05-01T19:46:16.640Z,97160.30
2019-05-01T19:48:50.890Z,97156.98
2019-05-01T19:51:23.974Z,97154.96
2019-05-01T19:53:51.576Z,97153.63
2019-05-01T19:56:22.733Z,97157.60
2019-05-01T19:58:53.143Z,97157.23
2019-05-01T20:01:22.600Z,97154.45
2019-05-01T20:03:53.665Z,97150.13
2019-05-01T20:06:23.177Z,97153.61
2019-05-01T20:08:56.049Z,97151.18
2019-05-01T20:11:27.318Z,97158.00
2019-05-01T20:13:57.129Z,97148.70
2019-05-01T20:16:30.046Z,97152.28
2019-05-01T20:19:00.276Z,97154.66
2019-05-01T20:21:30.755Z,97159.25
2019-05-01T20:24:04.333Z,97150.16
2019-05-01T20:26:33.886Z,97155.51
2019-05-01T20:29:04.390Z,97150.14
2019-05-01T20:31:33.858Z,97156.61
2019-05-01T20:34:04.914Z,97157.96
2019-05-01T20:36:34.540Z,97150.27
2019-05-01T20:39:06.855Z,97153.64
2019-05-01T20:41:37.316Z,97160.86
2019-05-01T20:44:06.700Z,97157.48
2019-05-01T20:46:36.188Z,97158.66
2019-05-01T20:49:06.796Z,97162.47
2019-05-01T20:51:36.385Z,97159.88
2019-05-01T20:54:05.912Z,97159.21
2019-05-01T20:56:36.943Z,97163.71
2019-05-01T20:59:06.329Z,97159.41
2019-05-01T21:01:35.798Z,97159.14
2019-05-01T21:04:09.766Z,97160.59
2019-05-01T21:06:57.859Z,97162.01
2019-05-01T21:09:31.607Z,97160.38
2019-05-01T21:12:05.403Z,97158.01
2019-05-01T21:14:33.473Z,97156.43
2019-05-01T21:17:02.922Z,97164.54
2019-05-01T21:19:33.570Z,97161.25
2019-05-01T21:22:04.121Z,97163.56
2019-05-01T21:24:34.379Z,97164.15
2019-05-01T21:27:03.932Z,97166.31
2019-05-01T21:29:34.334Z,97164.98
2019-05-01T21:32:04.128Z,97178.74
2019-05-01T21:34:33.510Z,97167.13
2019-05-01T21:37:02.904Z,97171.09
2019-05-01T21:39:33.528Z,97173.20
2019-05-01T21:42:04.725Z,97177.18
2019-05-01T21:44:34.242Z,97170.95
2019-05-01T21:47:04.047Z,97175.55
2019-05-01T21:49:34.438Z,97170.88
2019-05-01T21:52:07.103Z,97179.00
2019-05-01T21:54:35.678Z,97177.59
2019-05-01T21:57:05.489Z,97171.22
2019-05-01T21:59:35.315Z,97182.05
2019-05-01T22:02:09.975Z,97170.59
2019-05-01T22:04:36.616Z,97174.98
2019-05-01T22:07:06.530Z,97168.79
2019-05-01T22:09:36.546Z,97174.45
2019-05-01T22:12:08.361Z,97172.70
2019-05-01T22:14:48.102Z,97169.93
2019-05-01T22:17:19.247Z,97172.03
2019-05-01T22:19:48.786Z,97170.06
2019-05-01T22:22:25.955Z,97170.67
2019-05-01T22:25:13.058Z,97167.97
2019-05-01T22:27:49.839Z,97163.84
2019-05-01T22:30:21.126Z,97169.80
2019-05-01T22:32:52.167Z,97168.48
2019-05-01T22:35:34.783Z,97168.81
2019-05-01T22:38:05.723Z,97166.94
2019-05-01T22:41:04.760Z,97162.98
2019-05-01T22:43:25.982Z,97170.38
2019-05-01T22:45:56.405Z,97166.94
2019-05-01T22:48:26.655Z,97173.38
2019-05-01T22:50:57.694Z,97165.31
2019-05-01T22:53:27.073Z,97172.27
2019-05-01T22:55:57.307Z,97172.17
2019-05-01T22:58:27.609Z,97164.78
2019-05-01T23:00:58.790Z,97168.30
2019-05-01T23:03:40.811Z,97162.67
2019-05-01T23:06:07.884Z,97158.81
2019-05-01T23:08:37.501Z,97156.46
2019-05-01T23:11:19.236Z,97153.55
2019-05-01T23:13:38.747Z,97157.00
2019-05-01T23:16:08.280Z,97153.44
2019-05-01T23:18:37.674Z,97155.03
2019-05-01T23:21:09.926Z,97153.01
2019-05-01T23:23:38.281Z,97157.22
2019-05-01T23:26:11.779Z,97156.32
2019-05-01T23:28:39.847Z,97145.48
2019-05-01T23:31:10.024Z,97152.63
2019-05-01T23:33:39.483Z,97152.18
2019-05-01T23:36:08.878Z,97147.09
2019-05-01T23:38:38.322Z,97138.92
2019-05-01T23:41:07.790Z,97136.68
2019-05-01T23:43:38.146Z,97135.23
2019-05-01T23:46:07.676Z,97132.04
2019-05-01T23:48:37.142Z,97129.69
2019-05-01T23:51:06.516Z,97123.66
2019-05-01T23:53:35.913Z,97116.77
2019-05-01T23:56:05.374Z,97107.30
2019-05-01T23:58:34.778Z,97113.53
